sensor_id;sensor_type;location;lat;lon;timestamp;temperature;humidity
50690;DHT22;54375;48.298;11.238;2022-09-17T00:02:20;9.40;91.30
50690;DHT22;54375;48.298;11.238;2022-09-17T00:05:23;9.40;91.10
50690;DHT22;54375;48.298;11.238;2022-09-17T00:08:24;9.40;90.90
50690;DHT22;54375;48.298;11.238;2022-09-17T00:11:27;9.40;90.90
50690;DHT22;54375;48.298;11.238;2022-09-17T00:14:28;9.40;90.80
50690;DHT22;54375;48.298;11.238;2022-09-17T00:17:29;9.40;90.70
50690;DHT22;54375;48.298;11.238;2022-09-17T00:20:31;9.40;90.60
50690;DHT22;54375;48.298;11.238;2022-09-17T00:23:32;9.30;90.40
50690;DHT22;54375;48.298;11.238;2022-09-17T00:26:33;9.30;90.40
50690;DHT22;54375;48.298;11.238;2022-09-17T00:29:34;9.20;90.40
50690;DHT22;54375;48.298;11.238;2022-09-17T00:32:35;9.20;90.70
50690;DHT22;54375;48.298;11.238;2022-09-17T00:35:37;9.10;90.60
50690;DHT22;54375;48.298;11.238;2022-09-17T00:38:38;9.10;90.60
50690;DHT22;54375;48.298;11.238;2022-09-17T00:41:39;9.10;90.70
50690;DHT22;54375;48.298;11.238;2022-09-17T00:44:44;9.10;90.70
50690;DHT22;54375;48.298;11.238;2022-09-17T00:47:46;9.10;90.70
50690;DHT22;54375;48.298;11.238;2022-09-17T00:50:51;9.10;90.70
50690;DHT22;54375;48.298;11.238;2022-09-17T00:53:54;9.10;90.70
50690;DHT22;54375;48.298;11.238;2022-09-17T00:56:56;9.10;90.80
50690;DHT22;54375;48.298;11.238;2022-09-17T00:59:58;9.10;90.90
50690;DHT22;54375;48.298;11.238;2022-09-17T01:02:59;9.10;91.10
50690;DHT22;54375;48.298;11.238;2022-09-17T01:06:12;9.00;91.50
50690;DHT22;54375;48.298;11.238;2022-09-17T01:09:23;9.00;91.50
50690;DHT22;54375;48.298;11.238;2022-09-17T01:12:38;9.00;91.40
50690;DHT22;54375;48.298;11.238;2022-09-17T01:15:48;9.00;91.40
50690;DHT22;54375;48.298;11.238;2022-09-17T01:19:02;9.00;91.40
50690;DHT22;54375;48.298;11.238;2022-09-17T01:22:09;9.00;91.50
50690;DHT22;54375;48.298;11.238;2022-09-17T01:25:22;9.00;91.50
50690;DHT22;54375;48.298;11.238;2022-09-17T01:28:31;8.90;91.30
50690;DHT22;54375;48.298;11.238;2022-09-17T01:31:36;8.90;91.20
50690;DHT22;54375;48.298;11.238;2022-09-17T01:34:44;8.90;91.30
50690;DHT22;54375;48.298;11.238;2022-09-17T01:37:56;8.80;91.30
50690;DHT22;54375;48.298;11.238;2022-09-17T01:41:03;8.80;91.30
50690;DHT22;54375;48.298;11.238;2022-09-17T01:44:10;8.80;91.30
50690;DHT22;54375;48.298;11.238;2022-09-17T01:47:18;8.80;91.30
50690;DHT22;54375;48.298;11.238;2022-09-17T01:50:23;8.70;91.20
50690;DHT22;54375;48.298;11.238;2022-09-17T01:53:30;8.70;91.30
50690;DHT22;54375;48.298;11.238;2022-09-17T01:56:37;8.60;91.20
50690;DHT22;54375;48.298;11.238;2022-09-17T01:59:42;8.60;91.20
50690;DHT22;54375;48.298;11.238;2022-09-17T02:02:47;8.60;91.00
50690;DHT22;54375;48.298;11.238;2022-09-17T02:05:53;8.60;91.00
50690;DHT22;54375;48.298;11.238;2022-09-17T02:08:58;8.60;91.00
50690;DHT22;54375;48.298;11.238;2022-09-17T02:12:00;8.60;90.90
50690;DHT22;54375;48.298;11.238;2022-09-17T02:15:06;8.50;90.90
50690;DHT22;54375;48.298;11.238;2022-09-17T02:18:17;8.50;90.90
50690;DHT22;54375;48.298;11.238;2022-09-17T02:21:24;8.60;90.90
50690;DHT22;54375;48.298;11.238;2022-09-17T02:24:34;8.50;90.90
50690;DHT22;54375;48.298;11.238;2022-09-17T02:27:41;8.60;90.80
50690;DHT22;54375;48.298;11.238;2022-09-17T02:30:46;8.60;90.90
50690;DHT22;54375;48.298;11.238;2022-09-17T02:33:51;8.60;90.90
50690;DHT22;54375;48.298;11.238;2022-09-17T02:36:53;8.60;90.90
50690;DHT22;54375;48.298;11.238;2022-09-17T02:39:54;8.60;90.70
50690;DHT22;54375;48.298;11.238;2022-09-17T02:43:08;8.60;90.70
50690;DHT22;54375;48.298;11.238;2022-09-17T02:46:20;8.60;90.70
50690;DHT22;54375;48.298;11.238;2022-09-17T02:49:36;8.60;90.60
50690;DHT22;54375;48.298;11.238;2022-09-17T02:52:48;8.50;90.50
50690;DHT22;54375;48.298;11.238;2022-09-17T02:56:00;8.50;90.20
50690;DHT22;54375;48.298;11.238;2022-09-17T02:59:11;8.50;90.30
50690;DHT22;54375;48.298;11.238;2022-09-17T03:02:18;8.50;90.30
50690;DHT22;54375;48.298;11.238;2022-09-17T03:05:22;8.50;90.20
50690;DHT22;54375;48.298;11.238;2022-09-17T03:08:27;8.50;90.30
50690;DHT22;54375;48.298;11.238;2022-09-17T03:11:28;8.40;90.30
50690;DHT22;54375;48.298;11.238;2022-09-17T03:14:30;8.30;90.40
50690;DHT22;54375;48.298;11.238;2022-09-17T03:17:31;8.20;90.50
50690;DHT22;54375;48.298;11.238;2022-09-17T03:20:33;8.20;90.50
50690;DHT22;54375;48.298;11.238;2022-09-17T03:23:34;8.10;90.60
50690;DHT22;54375;48.298;11.238;2022-09-17T03:26:34;8.10;90.70
50690;DHT22;54375;48.298;11.238;2022-09-17T03:29:35;8.00;90.80
50690;DHT22;54375;48.298;11.238;2022-09-17T03:32:36;7.90;90.80
50690;DHT22;54375;48.298;11.238;2022-09-17T03:35:41;7.90;91.00
50690;DHT22;54375;48.298;11.238;2022-09-17T03:38:42;7.90;91.20
50690;DHT22;54375;48.298;11.238;2022-09-17T03:41:43;7.90;91.30
50690;DHT22;54375;48.298;11.238;2022-09-17T03:44:43;7.90;91.40
50690;DHT22;54375;48.298;11.238;2022-09-17T03:47:44;7.80;91.50
50690;DHT22;54375;48.298;11.238;2022-09-17T03:50:46;7.80;91.60
50690;DHT22;54375;48.298;11.238;2022-09-17T03:53:47;7.80;91.60
50690;DHT22;54375;48.298;11.238;2022-09-17T03:56:48;7.80;91.60
50690;DHT22;54375;48.298;11.238;2022-09-17T03:59:49;7.80;91.60
50690;DHT22;54375;48.298;11.238;2022-09-17T04:02:50;7.80;91.40
50690;DHT22;54375;48.298;11.238;2022-09-17T04:05:52;7.80;91.40
50690;DHT22;54375;48.298;11.238;2022-09-17T04:08:53;7.80;91.40
50690;DHT22;54375;48.298;11.238;2022-09-17T04:11:54;7.80;91.30
50690;DHT22;54375;48.298;11.238;2022-09-17T04:14:54;7.80;91.40
50690;DHT22;54375;48.298;11.238;2022-09-17T04:17:55;7.80;91.20
50690;DHT22;54375;48.298;11.238;2022-09-17T04:20:57;7.80;91.10
50690;DHT22;54375;48.298;11.238;2022-09-17T04:23:58;7.70;91.20
50690;DHT22;54375;48.298;11.238;2022-09-17T04:26:59;7.70;91.20
50690;DHT22;54375;48.298;11.238;2022-09-17T04:30:00;7.70;91.30
50690;DHT22;54375;48.298;11.238;2022-09-17T04:33:00;7.60;91.40
50690;DHT22;54375;48.298;11.238;2022-09-17T04:36:03;7.60;91.40
50690;DHT22;54375;48.298;11.238;2022-09-17T04:39:04;7.60;91.40
50690;DHT22;54375;48.298;11.238;2022-09-17T04:42:05;7.60;91.50
50690;DHT22;54375;48.298;11.238;2022-09-17T04:45:06;7.50;91.50
50690;DHT22;54375;48.298;11.238;2022-09-17T04:48:08;7.50;91.80
50690;DHT22;54375;48.298;11.238;2022-09-17T04:51:10;7.40;91.90
50690;DHT22;54375;48.298;11.238;2022-09-17T04:54:10;7.40;92.10
50690;DHT22;54375;48.298;11.238;2022-09-17T04:57:11;7.40;92.20
50690;DHT22;54375;48.298;11.238;2022-09-17T05:00:13;7.40;92.20
50690;DHT22;54375;48.298;11.238;2022-09-17T05:03:13;7.40;92.30
50690;DHT22;54375;48.298;11.238;2022-09-17T05:06:16;7.40;92.30
50690;DHT22;54375;48.298;11.238;2022-09-17T05:09:16;7.40;92.30
50690;DHT22;54375;48.298;11.238;2022-09-17T05:12:17;7.50;92.40
50690;DHT22;54375;48.298;11.238;2022-09-17T05:15:19;7.50;92.30
50690;DHT22;54375;48.298;11.238;2022-09-17T05:18:19;7.60;92.20
50690;DHT22;54375;48.298;11.238;2022-09-17T05:21:21;7.70;92.20
50690;DHT22;54375;48.298;11.238;2022-09-17T05:24:22;7.70;92.10
50690;DHT22;54375;48.298;11.238;2022-09-17T05:27:23;7.70;92.00
50690;DHT22;54375;48.298;11.238;2022-09-17T05:30:24;7.80;91.90
50690;DHT22;54375;48.298;11.238;2022-09-17T05:33:24;7.90;91.90
50690;DHT22;54375;48.298;11.238;2022-09-17T05:36:27;7.90;92.20
50690;DHT22;54375;48.298;11.238;2022-09-17T05:39:27;7.90;91.90
50690;DHT22;54375;48.298;11.238;2022-09-17T05:42:28;8.00;91.80
50690;DHT22;54375;48.298;11.238;2022-09-17T05:45:29;8.00;91.70
50690;DHT22;54375;48.298;11.238;2022-09-17T05:48:30;8.10;91.60
50690;DHT22;54375;48.298;11.238;2022-09-17T05:51:32;8.10;91.50
50690;DHT22;54375;48.298;11.238;2022-09-17T05:54:32;8.20;91.50
50690;DHT22;54375;48.298;11.238;2022-09-17T05:57:33;8.20;91.30
50690;DHT22;54375;48.298;11.238;2022-09-17T06:00:34;8.30;91.20
50690;DHT22;54375;48.298;11.238;2022-09-17T06:03:35;8.20;91.00
50690;DHT22;54375;48.298;11.238;2022-09-17T06:06:37;8.30;91.00
50690;DHT22;54375;48.298;11.238;2022-09-17T06:09:37;8.30;90.80
50690;DHT22;54375;48.298;11.238;2022-09-17T06:12:38;8.30;90.80
50690;DHT22;54375;48.298;11.238;2022-09-17T06:15:39;8.40;90.80
50690;DHT22;54375;48.298;11.238;2022-09-17T06:18:39;8.40;90.70
50690;DHT22;54375;48.298;11.238;2022-09-17T06:21:41;8.40;90.70
50690;DHT22;54375;48.298;11.238;2022-09-17T06:24:42;8.50;90.80
50690;DHT22;54375;48.298;11.238;2022-09-17T06:27:43;8.50;90.50
50690;DHT22;54375;48.298;11.238;2022-09-17T06:30:44;8.50;90.50
50690;DHT22;54375;48.298;11.238;2022-09-17T06:33:44;8.50;90.20
50690;DHT22;54375;48.298;11.238;2022-09-17T06:36:47;8.60;90.20
50690;DHT22;54375;48.298;11.238;2022-09-17T06:39:48;8.60;90.50
50690;DHT22;54375;48.298;11.238;2022-09-17T06:42:48;8.50;90.60
50690;DHT22;54375;48.298;11.238;2022-09-17T06:45:53;8.50;90.80
50690;DHT22;54375;48.298;11.238;2022-09-17T06:48:54;8.50;90.60
50690;DHT22;54375;48.298;11.238;2022-09-17T06:51:57;8.60;90.90
50690;DHT22;54375;48.298;11.238;2022-09-17T06:54:57;8.60;90.90
50690;DHT22;54375;48.298;11.238;2022-09-17T06:57:58;8.60;90.60
50690;DHT22;54375;48.298;11.238;2022-09-17T07:00:59;8.80;90.60
50690;DHT22;54375;48.298;11.238;2022-09-17T07:04:01;8.90;90.20
50690;DHT22;54375;48.298;11.238;2022-09-17T07:07:03;9.00;90.40
50690;DHT22;54375;48.298;11.238;2022-09-17T07:10:04;9.20;89.50
50690;DHT22;54375;48.298;11.238;2022-09-17T07:13:04;9.20;88.50
50690;DHT22;54375;48.298;11.238;2022-09-17T07:16:05;9.20;88.70
50690;DHT22;54375;48.298;11.238;2022-09-17T07:19:06;9.10;86.60
50690;DHT22;54375;48.298;11.238;2022-09-17T07:22:08;9.10;88.10
50690;DHT22;54375;48.298;11.238;2022-09-17T07:25:09;9.10;86.40
50690;DHT22;54375;48.298;11.238;2022-09-17T07:28:10;9.30;86.60
50690;DHT22;54375;48.298;11.238;2022-09-17T07:31:11;9.50;86.40
50690;DHT22;54375;48.298;11.238;2022-09-17T07:34:12;9.50;85.80
50690;DHT22;54375;48.298;11.238;2022-09-17T07:37:14;9.70;84.60
50690;DHT22;54375;48.298;11.238;2022-09-17T07:40:15;9.90;84.50
50690;DHT22;54375;48.298;11.238;2022-09-17T07:43:16;10.00;82.60
50690;DHT22;54375;48.298;11.238;2022-09-17T07:46:18;10.10;81.80
50690;DHT22;54375;48.298;11.238;2022-09-17T07:49:19;10.20;80.50
50690;DHT22;54375;48.298;11.238;2022-09-17T07:52:21;10.20;80.30
50690;DHT22;54375;48.298;11.238;2022-09-17T07:55:21;10.20;79.60
50690;DHT22;54375;48.298;11.238;2022-09-17T07:58:26;10.30;80.70
50690;DHT22;54375;48.298;11.238;2022-09-17T08:01:27;10.40;78.20
50690;DHT22;54375;48.298;11.238;2022-09-17T08:04:28;10.40;78.70
50690;DHT22;54375;48.298;11.238;2022-09-17T08:07:30;10.50;79.10
50690;DHT22;54375;48.298;11.238;2022-09-17T08:10:31;10.70;78.10
50690;DHT22;54375;48.298;11.238;2022-09-17T08:13:32;10.70;75.50
50690;DHT22;54375;48.298;11.238;2022-09-17T08:16:33;11.00;76.50
50690;DHT22;54375;48.298;11.238;2022-09-17T08:19:34;11.20;75.40
50690;DHT22;54375;48.298;11.238;2022-09-17T08:22:36;11.30;75.60
50690;DHT22;54375;48.298;11.238;2022-09-17T08:25:37;11.40;75.60
50690;DHT22;54375;48.298;11.238;2022-09-17T08:28:37;11.10;72.00
50690;DHT22;54375;48.298;11.238;2022-09-17T08:31:38;11.00;73.60
50690;DHT22;54375;48.298;11.238;2022-09-17T08:34:39;11.10;72.50
50690;DHT22;54375;48.298;11.238;2022-09-17T08:37:41;11.00;72.80
50690;DHT22;54375;48.298;11.238;2022-09-17T08:40:44;11.10;72.60
50690;DHT22;54375;48.298;11.238;2022-09-17T08:43:52;11.20;72.80
50690;DHT22;54375;48.298;11.238;2022-09-17T08:46:58;11.20;71.30
50690;DHT22;54375;48.298;11.238;2022-09-17T08:50:01;11.20;72.40
50690;DHT22;54375;48.298;11.238;2022-09-17T08:53:23;11.20;71.80
50690;DHT22;54375;48.298;11.238;2022-09-17T08:56:27;11.20;71.20
50690;DHT22;54375;48.298;11.238;2022-09-17T08:59:35;11.00;71.30
50690;DHT22;54375;48.298;11.238;2022-09-17T09:02:58;10.90;72.60
50690;DHT22;54375;48.298;11.238;2022-09-17T09:06:00;11.10;72.70
50690;DHT22;54375;48.298;11.238;2022-09-17T09:09:05;11.20;70.90
50690;DHT22;54375;48.298;11.238;2022-09-17T09:12:13;11.20;70.30
50690;DHT22;54375;48.298;11.238;2022-09-17T09:15:32;11.20;72.80
50690;DHT22;54375;48.298;11.238;2022-09-17T09:18:36;11.00;70.80
50690;DHT22;54375;48.298;11.238;2022-09-17T09:21:43;10.80;71.90
50690;DHT22;54375;48.298;11.238;2022-09-17T09:24:52;10.60;72.90
50690;DHT22;54375;48.298;11.238;2022-09-17T09:28:05;10.50;75.20
50690;DHT22;54375;48.298;11.238;2022-09-17T09:31:26;10.40;75.60
50690;DHT22;54375;48.298;11.238;2022-09-17T09:34:32;10.40;76.30
50690;DHT22;54375;48.298;11.238;2022-09-17T09:37:35;10.30;76.10
50690;DHT22;54375;48.298;11.238;2022-09-17T09:40:43;10.20;77.80
50690;DHT22;54375;48.298;11.238;2022-09-17T09:43:46;10.10;77.50
50690;DHT22;54375;48.298;11.238;2022-09-17T09:47:02;10.00;79.00
50690;DHT22;54375;48.298;11.238;2022-09-17T09:50:19;10.00;79.80
50690;DHT22;54375;48.298;11.238;2022-09-17T09:53:30;9.90;80.00
50690;DHT22;54375;48.298;11.238;2022-09-17T09:56:50;9.80;80.60
50690;DHT22;54375;48.298;11.238;2022-09-17T10:00:21;9.80;81.40
50690;DHT22;54375;48.298;11.238;2022-09-17T10:03:24;9.90;81.50
50690;DHT22;54375;48.298;11.238;2022-09-17T10:06:28;10.00;81.50
50690;DHT22;54375;48.298;11.238;2022-09-17T10:09:30;10.00;82.80
50690;DHT22;54375;48.298;11.238;2022-09-17T10:12:32;10.20;80.90
50690;DHT22;54375;48.298;11.238;2022-09-17T10:15:33;10.20;80.90
50690;DHT22;54375;48.298;11.238;2022-09-17T10:18:34;10.20;80.60
50690;DHT22;54375;48.298;11.238;2022-09-17T10:21:36;10.30;82.30
50690;DHT22;54375;48.298;11.238;2022-09-17T10:24:37;10.30;82.80
50690;DHT22;54375;48.298;11.238;2022-09-17T10:27:42;10.50;82.30
50690;DHT22;54375;48.298;11.238;2022-09-17T10:30:55;10.70;81.70
50690;DHT22;54375;48.298;11.238;2022-09-17T10:33:57;10.60;80.90
50690;DHT22;54375;48.298;11.238;2022-09-17T10:37:00;10.40;80.80
50690;DHT22;54375;48.298;11.238;2022-09-17T10:40:01;10.40;83.90
50690;DHT22;54375;48.298;11.238;2022-09-17T10:43:21;10.50;83.00
50690;DHT22;54375;48.298;11.238;2022-09-17T10:46:25;10.60;83.40
50690;DHT22;54375;48.298;11.238;2022-09-17T10:49:35;10.70;83.40
50690;DHT22;54375;48.298;11.238;2022-09-17T10:52:38;10.60;83.20
50690;DHT22;54375;48.298;11.238;2022-09-17T10:55:43;10.60;85.10
50690;DHT22;54375;48.298;11.238;2022-09-17T10:58:53;10.30;84.90
50690;DHT22;54375;48.298;11.238;2022-09-17T11:02:07;10.10;85.40
50690;DHT22;54375;48.298;11.238;2022-09-17T11:05:25;9.90;84.90
50690;DHT22;54375;48.298;11.238;2022-09-17T11:08:33;9.90;83.00
50690;DHT22;54375;48.298;11.238;2022-09-17T11:11:46;10.00;83.60
50690;DHT22;54375;48.298;11.238;2022-09-17T11:14:57;10.20;83.80
50690;DHT22;54375;48.298;11.238;2022-09-17T11:21:42;10.80;81.10
50690;DHT22;54375;48.298;11.238;2022-09-17T11:28:27;10.70;80.40
50690;DHT22;54375;48.298;11.238;2022-09-17T11:31:38;10.50;79.20
50690;DHT22;54375;48.298;11.238;2022-09-17T11:34:44;10.30;80.40
50690;DHT22;54375;48.298;11.238;2022-09-17T11:37:49;10.20;79.00
50690;DHT22;54375;48.298;11.238;2022-09-17T11:40:58;9.90;82.20
50690;DHT22;54375;48.298;11.238;2022-09-17T11:44:07;9.60;82.40
50690;DHT22;54375;48.298;11.238;2022-09-17T11:47:14;9.40;84.10
50690;DHT22;54375;48.298;11.238;2022-09-17T11:50:19;9.40;86.10
50690;DHT22;54375;48.298;11.238;2022-09-17T11:53:27;9.50;84.90
50690;DHT22;54375;48.298;11.238;2022-09-17T11:56:32;9.70;85.30
50690;DHT22;54375;48.298;11.238;2022-09-17T11:59:37;9.90;84.70
50690;DHT22;54375;48.298;11.238;2022-09-17T12:02:46;9.90;83.90
50690;DHT22;54375;48.298;11.238;2022-09-17T12:05:52;9.80;84.60
50690;DHT22;54375;48.298;11.238;2022-09-17T12:08:59;9.80;85.20
50690;DHT22;54375;48.298;11.238;2022-09-17T12:12:06;9.90;83.80
50690;DHT22;54375;48.298;11.238;2022-09-17T12:15:14;10.00;85.00
50690;DHT22;54375;48.298;11.238;2022-09-17T12:18:27;10.00;84.80
50690;DHT22;54375;48.298;11.238;2022-09-17T12:21:36;10.10;82.50
50690;DHT22;54375;48.298;11.238;2022-09-17T12:24:37;10.20;83.50
50690;DHT22;54375;48.298;11.238;2022-09-17T12:27:42;10.20;81.30
50690;DHT22;54375;48.298;11.238;2022-09-17T12:30:51;10.10;80.80
50690;DHT22;54375;48.298;11.238;2022-09-17T12:34:02;10.00;81.70
50690;DHT22;54375;48.298;11.238;2022-09-17T12:37:10;10.00;82.00
50690;DHT22;54375;48.298;11.238;2022-09-17T12:40:20;10.40;83.00
50690;DHT22;54375;48.298;11.238;2022-09-17T12:43:41;11.10;80.70
50690;DHT22;54375;48.298;11.238;2022-09-17T12:46:53;11.50;77.80
50690;DHT22;54375;48.298;11.238;2022-09-17T12:50:04;11.40;79.00
50690;DHT22;54375;48.298;11.238;2022-09-17T12:53:18;11.10;75.70
50690;DHT22;54375;48.298;11.238;2022-09-17T12:56:28;11.20;78.20
50690;DHT22;54375;48.298;11.238;2022-09-17T12:59:35;11.50;75.00
50690;DHT22;54375;48.298;11.238;2022-09-17T13:02:43;11.70;75.60
50690;DHT22;54375;48.298;11.238;2022-09-17T13:06:15;12.10;75.10
50690;DHT22;54375;48.298;11.238;2022-09-17T13:09:40;12.60;74.50
50690;DHT22;54375;48.298;11.238;2022-09-17T13:12:46;12.60;71.50
50690;DHT22;54375;48.298;11.238;2022-09-17T13:15:59;12.40;70.20
50690;DHT22;54375;48.298;11.238;2022-09-17T13:19:08;12.10;71.20
50690;DHT22;54375;48.298;11.238;2022-09-17T13:22:16;11.80;73.40
50690;DHT22;54375;48.298;11.238;2022-09-17T13:25:19;11.60;75.10
50690;DHT22;54375;48.298;11.238;2022-09-17T13:28:20;11.50;75.80
50690;DHT22;54375;48.298;11.238;2022-09-17T13:31:22;12.00;75.50
50690;DHT22;54375;48.298;11.238;2022-09-17T13:34:42;12.40;74.10
50690;DHT22;54375;48.298;11.238;2022-09-17T13:37:53;13.00;72.00
50690;DHT22;54375;48.298;11.238;2022-09-17T13:41:15;13.40;65.80
50690;DHT22;54375;48.298;11.238;2022-09-17T13:44:21;13.50;67.30
50690;DHT22;54375;48.298;11.238;2022-09-17T13:47:26;13.70;65.00
50690;DHT22;54375;48.298;11.238;2022-09-17T13:50:30;13.90;63.20
50690;DHT22;54375;48.298;11.238;2022-09-17T13:53:33;13.90;61.80
50690;DHT22;54375;48.298;11.238;2022-09-17T13:56:36;13.80;61.70
50690;DHT22;54375;48.298;11.238;2022-09-17T13:59:37;13.70;61.60
50690;DHT22;54375;48.298;11.238;2022-09-17T14:02:40;13.30;62.70
50690;DHT22;54375;48.298;11.238;2022-09-17T14:05:41;12.80;65.60
50690;DHT22;54375;48.298;11.238;2022-09-17T14:08:48;12.20;69.40
50690;DHT22;54375;48.298;11.238;2022-09-17T14:11:49;11.70;72.80
50690;DHT22;54375;48.298;11.238;2022-09-17T14:14:50;11.50;74.40
50690;DHT22;54375;48.298;11.238;2022-09-17T14:17:51;11.50;75.10
50690;DHT22;54375;48.298;11.238;2022-09-17T14:20:52;11.50;74.80
50690;DHT22;54375;48.298;11.238;2022-09-17T14:23:58;11.50;71.00
50690;DHT22;54375;48.298;11.238;2022-09-17T14:27:08;11.50;68.80
50690;DHT22;54375;48.298;11.238;2022-09-17T14:30:15;11.50;70.60
50690;DHT22;54375;48.298;11.238;2022-09-17T14:33:20;11.40;71.90
50690;DHT22;54375;48.298;11.238;2022-09-17T14:36:23;11.60;73.30
50690;DHT22;54375;48.298;11.238;2022-09-17T14:39:27;11.70;72.70
50690;DHT22;54375;48.298;11.238;2022-09-17T14:42:34;11.80;73.80
50690;DHT22;54375;48.298;11.238;2022-09-17T14:45:40;11.80;71.00
50690;DHT22;54375;48.298;11.238;2022-09-17T14:48:41;11.80;70.60
50690;DHT22;54375;48.298;11.238;2022-09-17T14:51:42;11.70;67.50
50690;DHT22;54375;48.298;11.238;2022-09-17T14:54:44;11.50;68.00
50690;DHT22;54375;48.298;11.238;2022-09-17T14:57:47;11.40;68.40
50690;DHT22;54375;48.298;11.238;2022-09-17T15:00:51;11.30;68.50
50690;DHT22;54375;48.298;11.238;2022-09-17T15:04:16;11.20;70.00
50690;DHT22;54375;48.298;11.238;2022-09-17T15:07:20;11.10;70.70
50690;DHT22;54375;48.298;11.238;2022-09-17T15:10:22;11.00;71.10
50690;DHT22;54375;48.298;11.238;2022-09-17T15:13:26;11.00;73.50
50690;DHT22;54375;48.298;11.238;2022-09-17T15:16:28;11.00;74.20
50690;DHT22;54375;48.298;11.238;2022-09-17T15:19:32;11.00;74.20
50690;DHT22;54375;48.298;11.238;2022-09-17T15:22:37;10.90;73.40
50690;DHT22;54375;48.298;11.238;2022-09-17T15:25:40;10.80;72.80
50690;DHT22;54375;48.298;11.238;2022-09-17T15:28:43;10.70;72.90
50690;DHT22;54375;48.298;11.238;2022-09-17T15:31:44;10.60;73.80
50690;DHT22;54375;48.298;11.238;2022-09-17T15:35:15;10.60;74.70
50690;DHT22;54375;48.298;11.238;2022-09-17T15:38:23;10.50;75.20
50690;DHT22;54375;48.298;11.238;2022-09-17T15:41:31;10.50;75.50
50690;DHT22;54375;48.298;11.238;2022-09-17T15:44:32;10.40;76.20
50690;DHT22;54375;48.298;11.238;2022-09-17T15:47:47;10.30;75.00
50690;DHT22;54375;48.298;11.238;2022-09-17T15:50:50;10.20;76.50
50690;DHT22;54375;48.298;11.238;2022-09-17T15:53:52;10.10;76.60
50690;DHT22;54375;48.298;11.238;2022-09-17T15:56:57;9.90;76.50
50690;DHT22;54375;48.298;11.238;2022-09-17T16:00:06;9.80;77.30
50690;DHT22;54375;48.298;11.238;2022-09-17T16:04:00;9.80;77.60
50690;DHT22;54375;48.298;11.238;2022-09-17T16:07:27;9.80;78.50
50690;DHT22;54375;48.298;11.238;2022-09-17T16:10:28;9.80;78.10
50690;DHT22;54375;48.298;11.238;2022-09-17T16:13:30;9.90;78.60
50690;DHT22;54375;48.298;11.238;2022-09-17T16:16:32;10.10;77.50
50690;DHT22;54375;48.298;11.238;2022-09-17T16:19:33;10.40;76.70
50690;DHT22;54375;48.298;11.238;2022-09-17T16:22:34;10.50;76.70
50690;DHT22;54375;48.298;11.238;2022-09-17T16:25:36;10.40;75.90
50690;DHT22;54375;48.298;11.238;2022-09-17T16:28:39;10.30;75.70
50690;DHT22;54375;48.298;11.238;2022-09-17T16:31:40;10.30;76.90
50690;DHT22;54375;48.298;11.238;2022-09-17T16:34:41;10.30;76.10
50690;DHT22;54375;48.298;11.238;2022-09-17T16:37:42;10.30;76.40
50690;DHT22;54375;48.298;11.238;2022-09-17T16:40:44;10.30;76.30
50690;DHT22;54375;48.298;11.238;2022-09-17T16:43:46;10.20;76.50
50690;DHT22;54375;48.298;11.238;2022-09-17T16:46:47;10.10;77.70
50690;DHT22;54375;48.298;11.238;2022-09-17T16:49:48;10.00;78.40
50690;DHT22;54375;48.298;11.238;2022-09-17T16:52:49;10.00;79.10
50690;DHT22;54375;48.298;11.238;2022-09-17T16:55:49;9.80;79.70
50690;DHT22;54375;48.298;11.238;2022-09-17T16:58:54;9.70;80.70
50690;DHT22;54375;48.298;11.238;2022-09-17T17:01:55;9.60;81.40
50690;DHT22;54375;48.298;11.238;2022-09-17T17:04:56;9.50;81.80
50690;DHT22;54375;48.298;11.238;2022-09-17T17:07:56;9.40;82.00
50690;DHT22;54375;48.298;11.238;2022-09-17T17:10:57;9.30;82.00
50690;DHT22;54375;48.298;11.238;2022-09-17T17:13:59;9.20;82.40
50690;DHT22;54375;48.298;11.238;2022-09-17T17:17:00;9.00;82.40
50690;DHT22;54375;48.298;11.238;2022-09-17T17:20:01;8.90;82.90
50690;DHT22;54375;48.298;11.238;2022-09-17T17:23:02;8.90;82.60
50690;DHT22;54375;48.298;11.238;2022-09-17T17:26:03;8.80;82.30
50690;DHT22;54375;48.298;11.238;2022-09-17T17:29:05;8.70;82.70
50690;DHT22;54375;48.298;11.238;2022-09-17T17:32:06;8.60;83.10
50690;DHT22;54375;48.298;11.238;2022-09-17T17:35:07;8.60;82.90
50690;DHT22;54375;48.298;11.238;2022-09-17T17:38:08;8.50;83.20
50690;DHT22;54375;48.298;11.238;2022-09-17T17:41:11;8.50;83.50
50690;DHT22;54375;48.298;11.238;2022-09-17T17:44:13;8.40;83.80
50690;DHT22;54375;48.298;11.238;2022-09-17T17:47:13;8.30;84.40
50690;DHT22;54375;48.298;11.238;2022-09-17T17:50:14;8.20;84.90
50690;DHT22;54375;48.298;11.238;2022-09-17T17:53:15;8.20;85.00
50690;DHT22;54375;48.298;11.238;2022-09-17T17:56:16;8.20;85.40
50690;DHT22;54375;48.298;11.238;2022-09-17T17:59:18;8.10;85.70
50690;DHT22;54375;48.298;11.238;2022-09-17T18:02:19;8.10;86.00
50690;DHT22;54375;48.298;11.238;2022-09-17T18:05:20;8.10;86.10
50690;DHT22;54375;48.298;11.238;2022-09-17T18:08:20;8.00;86.60
50690;DHT22;54375;48.298;11.238;2022-09-17T18:11:22;8.00;86.70
50690;DHT22;54375;48.298;11.238;2022-09-17T18:14:24;8.00;87.00
50690;DHT22;54375;48.298;11.238;2022-09-17T18:17:24;7.90;87.00
50690;DHT22;54375;48.298;11.238;2022-09-17T18:20:25;7.90;87.20
50690;DHT22;54375;48.298;11.238;2022-09-17T18:23:26;8.00;87.40
50690;DHT22;54375;48.298;11.238;2022-09-17T18:26:28;8.00;87.10
50690;DHT22;54375;48.298;11.238;2022-09-17T18:29:30;8.00;88.00
50690;DHT22;54375;48.298;11.238;2022-09-17T18:32:31;8.00;88.40
50690;DHT22;54375;48.298;11.238;2022-09-17T18:35:35;8.00;88.00
50690;DHT22;54375;48.298;11.238;2022-09-17T18:38:36;8.00;87.90
50690;DHT22;54375;48.298;11.238;2022-09-17T18:41:37;8.10;88.00
50690;DHT22;54375;48.298;11.238;2022-09-17T18:44:39;8.10;88.20
50690;DHT22;54375;48.298;11.238;2022-09-17T18:47:40;8.10;88.10
50690;DHT22;54375;48.298;11.238;2022-09-17T18:50:41;8.00;88.60
50690;DHT22;54375;48.298;11.238;2022-09-17T18:53:41;8.00;89.00
50690;DHT22;54375;48.298;11.238;2022-09-17T18:56:42;8.00;89.00
50690;DHT22;54375;48.298;11.238;2022-09-17T18:59:45;8.10;88.90
50690;DHT22;54375;48.298;11.238;2022-09-17T19:02:46;8.10;88.90
50690;DHT22;54375;48.298;11.238;2022-09-17T19:05:47;8.10;88.70
50690;DHT22;54375;48.298;11.238;2022-09-17T19:08:47;8.20;88.90
50690;DHT22;54375;48.298;11.238;2022-09-17T19:11:48;8.20;88.80
50690;DHT22;54375;48.298;11.238;2022-09-17T19:14:50;8.20;88.90
50690;DHT22;54375;48.298;11.238;2022-09-17T19:17:51;8.20;89.00
50690;DHT22;54375;48.298;11.238;2022-09-17T19:20:58;8.20;88.80
50690;DHT22;54375;48.298;11.238;2022-09-17T19:23:59;8.30;89.40
50690;DHT22;54375;48.298;11.238;2022-09-17T19:26:59;8.30;88.70